METAR Data
IDs: Format: Raw Decoded Include TAF

Data at: 0835 UTC 07 Apr 2020

METAR for:KHLX (Hillsville/Twin Cnty, VA, US)
Text:KHLX 070815Z AUTO 00000KT 10SM CLR 13/09 A3003 RMK AO2 T01270089
Temperature: 12.7°C ( 55°F)
Dewpoint: 8.9°C ( 48°F) [RH = 78%]
Pressure (altimeter):30.03 inches Hg (1017.0 mb)
Winds:calm
Visibility:10 or more sm (16+ km)
Ceiling:at least 12,000 feet AGL
Clouds:sky clear below 12,000 feet AGL
QC Flag:automated observation with no human augmentation